sensor_id;sensor_type;location;lat;lon;timestamp;P1;durP1;ratioP1;P2;durP2;ratioP2
52104;SDS011;38103;42.776;23.112;2022-10-22T00:01:47;32.28;;;19.50;;
52104;SDS011;38103;42.776;23.112;2022-10-22T00:04:12;33.90;;;19.08;;
52104;SDS011;38103;42.776;23.112;2022-10-22T00:06:37;34.80;;;19.17;;
52104;SDS011;38103;42.776;23.112;2022-10-22T00:09:03;34.10;;;19.05;;
52104;SDS011;38103;42.776;23.112;2022-10-22T00:11:28;40.10;;;20.20;;
52104;SDS011;38103;42.776;23.112;2022-10-22T00:13:54;38.45;;;20.90;;
52104;SDS011;38103;42.776;23.112;2022-10-22T00:16:19;37.45;;;21.08;;
52104;SDS011;38103;42.776;23.112;2022-10-22T00:18:44;37.72;;;21.23;;
52104;SDS011;38103;42.776;23.112;2022-10-22T00:21:10;38.10;;;22.02;;
52104;SDS011;38103;42.776;23.112;2022-10-22T00:23:38;39.95;;;20.77;;
52104;SDS011;38103;42.776;23.112;2022-10-22T00:26:05;39.17;;;20.70;;
52104;SDS011;38103;42.776;23.112;2022-10-22T00:28:30;43.28;;;21.25;;
52104;SDS011;38103;42.776;23.112;2022-10-22T00:30:56;34.92;;;19.25;;
52104;SDS011;38103;42.776;23.112;2022-10-22T00:33:23;34.30;;;17.83;;
52104;SDS011;38103;42.776;23.112;2022-10-22T00:35:49;37.55;;;18.63;;
52104;SDS011;38103;42.776;23.112;2022-10-22T00:38:15;36.50;;;20.02;;
52104;SDS011;38103;42.776;23.112;2022-10-22T00:40:40;36.17;;;20.73;;
52104;SDS011;38103;42.776;23.112;2022-10-22T00:43:09;33.78;;;19.13;;
52104;SDS011;38103;42.776;23.112;2022-10-22T00:45:36;37.25;;;19.33;;
52104;SDS011;38103;42.776;23.112;2022-10-22T00:48:04;37.92;;;21.88;;
52104;SDS011;38103;42.776;23.112;2022-10-22T00:53:03;39.63;;;22.00;;
52104;SDS011;38103;42.776;23.112;2022-10-22T00:55:31;37.78;;;20.58;;
52104;SDS011;38103;42.776;23.112;2022-10-22T00:57:57;41.33;;;20.55;;
52104;SDS011;38103;42.776;23.112;2022-10-22T01:00:24;38.70;;;21.45;;
52104;SDS011;38103;42.776;23.112;2022-10-22T01:02:50;45.67;;;22.27;;
52104;SDS011;38103;42.776;23.112;2022-10-22T01:05:17;40.67;;;21.38;;
52104;SDS011;38103;42.776;23.112;2022-10-22T01:07:44;40.95;;;22.25;;
52104;SDS011;38103;42.776;23.112;2022-10-22T01:10:26;38.72;;;19.98;;
52104;SDS011;38103;42.776;23.112;2022-10-22T01:23:43;39.78;;;20.77;;
52104;SDS011;38103;42.776;23.112;2022-10-22T01:29:17;36.20;;;19.52;;
52104;SDS011;38103;42.776;23.112;2022-10-22T01:31:58;39.30;;;20.23;;
52104;SDS011;38103;42.776;23.112;2022-10-22T01:34:27;35.95;;;20.73;;
52104;SDS011;38103;42.776;23.112;2022-10-22T01:36:55;35.10;;;19.25;;
52104;SDS011;38103;42.776;23.112;2022-10-22T01:39:22;36.35;;;19.35;;
52104;SDS011;38103;42.776;23.112;2022-10-22T01:41:49;37.30;;;19.65;;
52104;SDS011;38103;42.776;23.112;2022-10-22T01:47:02;32.70;;;18.38;;
52104;SDS011;38103;42.776;23.112;2022-10-22T01:54:41;35.90;;;18.50;;
52104;SDS011;38103;42.776;23.112;2022-10-22T02:00:08;38.22;;;20.55;;
52104;SDS011;38103;42.776;23.112;2022-10-22T02:05:26;37.28;;;22.35;;
52104;SDS011;38103;42.776;23.112;2022-10-22T02:08:23;41.60;;;20.38;;
52104;SDS011;38103;42.776;23.112;2022-10-22T02:10:52;38.83;;;20.15;;
52104;SDS011;38103;42.776;23.112;2022-10-22T02:13:22;34.90;;;19.60;;
52104;SDS011;38103;42.776;23.112;2022-10-22T02:15:50;37.75;;;19.35;;
52104;SDS011;38103;42.776;23.112;2022-10-22T02:18:18;38.72;;;20.25;;
52104;SDS011;38103;42.776;23.112;2022-10-22T02:20:45;36.08;;;19.50;;
52104;SDS011;38103;42.776;23.112;2022-10-22T02:23:11;33.72;;;18.75;;
52104;SDS011;38103;42.776;23.112;2022-10-22T02:25:38;38.92;;;19.13;;
52104;SDS011;38103;42.776;23.112;2022-10-22T02:30:50;43.03;;;21.48;;
52104;SDS011;38103;42.776;23.112;2022-10-22T02:33:29;36.10;;;20.42;;
52104;SDS011;38103;42.776;23.112;2022-10-22T02:35:57;39.88;;;19.95;;
52104;SDS011;38103;42.776;23.112;2022-10-22T02:38:25;38.15;;;20.60;;
52104;SDS011;38103;42.776;23.112;2022-10-22T02:40:52;40.80;;;20.52;;
52104;SDS011;38103;42.776;23.112;2022-10-22T02:43:18;41.05;;;21.30;;
52104;SDS011;38103;42.776;23.112;2022-10-22T02:45:44;39.95;;;21.58;;
52104;SDS011;38103;42.776;23.112;2022-10-22T02:48:10;36.08;;;20.50;;
52104;SDS011;38103;42.776;23.112;2022-10-22T02:50:36;40.05;;;20.35;;
52104;SDS011;38103;42.776;23.112;2022-10-22T02:53:01;41.38;;;21.63;;
52104;SDS011;38103;42.776;23.112;2022-10-22T02:55:27;36.67;;;20.58;;
52104;SDS011;38103;42.776;23.112;2022-10-22T02:57:52;41.78;;;21.38;;
52104;SDS011;38103;42.776;23.112;2022-10-22T03:00:17;37.05;;;20.77;;
52104;SDS011;38103;42.776;23.112;2022-10-22T03:02:43;36.53;;;19.95;;
52104;SDS011;38103;42.776;23.112;2022-10-22T03:05:08;41.10;;;21.77;;
52104;SDS011;38103;42.776;23.112;2022-10-22T03:07:34;39.42;;;21.55;;
52104;SDS011;38103;42.776;23.112;2022-10-22T03:09:59;43.78;;;21.48;;
52104;SDS011;38103;42.776;23.112;2022-10-22T03:12:25;44.17;;;22.92;;
52104;SDS011;38103;42.776;23.112;2022-10-22T03:14:50;44.35;;;21.38;;
52104;SDS011;38103;42.776;23.112;2022-10-22T03:17:15;36.15;;;20.90;;
52104;SDS011;38103;42.776;23.112;2022-10-22T03:19:41;43.90;;;22.42;;
52104;SDS011;38103;42.776;23.112;2022-10-22T03:22:08;39.50;;;20.42;;
52104;SDS011;38103;42.776;23.112;2022-10-22T03:24:39;44.15;;;21.73;;
52104;SDS011;38103;42.776;23.112;2022-10-22T03:27:07;38.25;;;21.13;;
52104;SDS011;38103;42.776;23.112;2022-10-22T03:29:33;39.42;;;20.23;;
52104;SDS011;38103;42.776;23.112;2022-10-22T03:32:01;38.50;;;20.92;;
52104;SDS011;38103;42.776;23.112;2022-10-22T03:34:27;38.90;;;21.23;;
52104;SDS011;38103;42.776;23.112;2022-10-22T03:36:52;39.97;;;20.88;;
52104;SDS011;38103;42.776;23.112;2022-10-22T03:39:19;41.15;;;21.02;;
52104;SDS011;38103;42.776;23.112;2022-10-22T03:41:46;41.05;;;20.80;;
52104;SDS011;38103;42.776;23.112;2022-10-22T03:44:13;39.70;;;20.55;;
52104;SDS011;38103;42.776;23.112;2022-10-22T03:46:40;49.15;;;23.75;;
52104;SDS011;38103;42.776;23.112;2022-10-22T03:49:05;47.60;;;23.13;;
52104;SDS011;38103;42.776;23.112;2022-10-22T03:51:31;41.03;;;23.13;;
52104;SDS011;38103;42.776;23.112;2022-10-22T03:53:56;51.20;;;23.60;;
52104;SDS011;38103;42.776;23.112;2022-10-22T03:56:22;50.72;;;23.52;;
52104;SDS011;38103;42.776;23.112;2022-10-22T03:58:47;42.03;;;22.80;;
52104;SDS011;38103;42.776;23.112;2022-10-22T04:01:13;45.25;;;24.30;;
52104;SDS011;38103;42.776;23.112;2022-10-22T04:03:38;43.88;;;24.13;;
52104;SDS011;38103;42.776;23.112;2022-10-22T04:06:05;51.58;;;23.35;;
52104;SDS011;38103;42.776;23.112;2022-10-22T04:08:33;46.40;;;24.40;;
52104;SDS011;38103;42.776;23.112;2022-10-22T04:10:59;46.08;;;23.48;;
52104;SDS011;38103;42.776;23.112;2022-10-22T04:13:24;42.83;;;21.27;;
52104;SDS011;38103;42.776;23.112;2022-10-22T04:15:50;44.35;;;23.20;;
52104;SDS011;38103;42.776;23.112;2022-10-22T04:18:16;44.67;;;23.67;;
52104;SDS011;38103;42.776;23.112;2022-10-22T04:20:45;43.38;;;23.27;;
52104;SDS011;38103;42.776;23.112;2022-10-22T04:23:11;37.72;;;20.63;;
52104;SDS011;38103;42.776;23.112;2022-10-22T04:25:37;36.92;;;20.52;;
52104;SDS011;38103;42.776;23.112;2022-10-22T04:28:05;43.97;;;20.40;;
52104;SDS011;38103;42.776;23.112;2022-10-22T04:30:31;43.70;;;23.30;;
52104;SDS011;38103;42.776;23.112;2022-10-22T04:32:57;37.92;;;21.70;;
52104;SDS011;38103;42.776;23.112;2022-10-22T04:35:22;40.95;;;22.70;;
52104;SDS011;38103;42.776;23.112;2022-10-22T04:37:48;42.95;;;21.67;;
52104;SDS011;38103;42.776;23.112;2022-10-22T04:40:13;39.80;;;20.83;;
52104;SDS011;38103;42.776;23.112;2022-10-22T04:42:38;36.42;;;19.05;;
52104;SDS011;38103;42.776;23.112;2022-10-22T04:45:04;34.90;;;19.73;;
52104;SDS011;38103;42.776;23.112;2022-10-22T04:47:30;36.80;;;20.85;;
52104;SDS011;38103;42.776;23.112;2022-10-22T04:49:55;42.38;;;21.20;;
52104;SDS011;38103;42.776;23.112;2022-10-22T04:52:20;37.67;;;21.25;;
52104;SDS011;38103;42.776;23.112;2022-10-22T04:54:46;38.38;;;20.52;;
52104;SDS011;38103;42.776;23.112;2022-10-22T04:57:11;39.63;;;20.95;;
52104;SDS011;38103;42.776;23.112;2022-10-22T04:59:38;35.83;;;19.63;;
52104;SDS011;38103;42.776;23.112;2022-10-22T05:02:03;39.13;;;19.98;;
52104;SDS011;38103;42.776;23.112;2022-10-22T05:04:29;38.67;;;20.73;;
52104;SDS011;38103;42.776;23.112;2022-10-22T05:06:54;36.05;;;20.90;;
52104;SDS011;38103;42.776;23.112;2022-10-22T05:09:20;36.92;;;20.27;;
52104;SDS011;38103;42.776;23.112;2022-10-22T05:11:46;42.70;;;20.85;;
52104;SDS011;38103;42.776;23.112;2022-10-22T05:14:18;39.85;;;21.73;;
52104;SDS011;38103;42.776;23.112;2022-10-22T05:16:48;38.22;;;20.17;;
52104;SDS011;38103;42.776;23.112;2022-10-22T05:19:22;40.85;;;20.85;;
52104;SDS011;38103;42.776;23.112;2022-10-22T05:21:49;40.28;;;18.70;;
52104;SDS011;38103;42.776;23.112;2022-10-22T05:24:16;39.00;;;21.35;;
52104;SDS011;38103;42.776;23.112;2022-10-22T05:26:41;38.15;;;21.38;;
52104;SDS011;38103;42.776;23.112;2022-10-22T05:29:07;37.78;;;21.42;;
52104;SDS011;38103;42.776;23.112;2022-10-22T05:31:32;44.03;;;22.70;;
52104;SDS011;38103;42.776;23.112;2022-10-22T05:33:58;40.55;;;21.08;;
52104;SDS011;38103;42.776;23.112;2022-10-22T05:36:24;40.65;;;22.20;;
52104;SDS011;38103;42.776;23.112;2022-10-22T05:38:49;38.75;;;20.75;;
52104;SDS011;38103;42.776;23.112;2022-10-22T05:41:16;43.88;;;22.08;;
52104;SDS011;38103;42.776;23.112;2022-10-22T05:43:43;39.80;;;22.23;;
52104;SDS011;38103;42.776;23.112;2022-10-22T05:46:10;37.70;;;20.70;;
52104;SDS011;38103;42.776;23.112;2022-10-22T05:48:38;45.17;;;20.83;;
52104;SDS011;38103;42.776;23.112;2022-10-22T05:51:05;38.80;;;21.30;;
52104;SDS011;38103;42.776;23.112;2022-10-22T05:53:33;42.85;;;22.58;;
52104;SDS011;38103;42.776;23.112;2022-10-22T05:56:01;43.33;;;22.90;;
52104;SDS011;38103;42.776;23.112;2022-10-22T05:58:28;36.55;;;21.92;;
52104;SDS011;38103;42.776;23.112;2022-10-22T06:00:54;35.83;;;19.95;;
52104;SDS011;38103;42.776;23.112;2022-10-22T06:03:24;34.17;;;19.98;;
52104;SDS011;38103;42.776;23.112;2022-10-22T06:05:50;36.45;;;19.90;;
52104;SDS011;38103;42.776;23.112;2022-10-22T06:08:15;40.35;;;19.02;;
52104;SDS011;38103;42.776;23.112;2022-10-22T06:10:41;32.00;;;18.98;;
52104;SDS011;38103;42.776;23.112;2022-10-22T06:13:07;32.03;;;18.52;;
52104;SDS011;38103;42.776;23.112;2022-10-22T06:15:33;30.88;;;19.05;;
52104;SDS011;38103;42.776;23.112;2022-10-22T06:17:58;33.53;;;19.27;;
52104;SDS011;38103;42.776;23.112;2022-10-22T06:20:24;29.88;;;18.80;;
52104;SDS011;38103;42.776;23.112;2022-10-22T06:22:50;30.42;;;17.75;;
52104;SDS011;38103;42.776;23.112;2022-10-22T06:25:15;32.72;;;19.52;;
52104;SDS011;38103;42.776;23.112;2022-10-22T06:27:41;33.80;;;20.27;;
52104;SDS011;38103;42.776;23.112;2022-10-22T06:30:06;43.88;;;24.95;;
52104;SDS011;38103;42.776;23.112;2022-10-22T06:32:32;44.65;;;26.15;;
52104;SDS011;38103;42.776;23.112;2022-10-22T06:34:57;54.53;;;31.35;;
52104;SDS011;38103;42.776;23.112;2022-10-22T06:37:23;59.65;;;36.05;;
52104;SDS011;38103;42.776;23.112;2022-10-22T06:39:48;58.58;;;34.70;;
52104;SDS011;38103;42.776;23.112;2022-10-22T06:42:13;64.47;;;36.85;;
52104;SDS011;38103;42.776;23.112;2022-10-22T06:44:39;62.75;;;35.63;;
52104;SDS011;38103;42.776;23.112;2022-10-22T06:47:04;60.45;;;34.95;;
52104;SDS011;38103;42.776;23.112;2022-10-22T06:49:29;55.75;;;33.85;;
52104;SDS011;38103;42.776;23.112;2022-10-22T06:51:55;54.05;;;34.47;;
52104;SDS011;38103;42.776;23.112;2022-10-22T06:54:21;64.65;;;36.15;;
52104;SDS011;38103;42.776;23.112;2022-10-22T06:56:46;57.20;;;32.47;;
52104;SDS011;38103;42.776;23.112;2022-10-22T06:59:13;49.08;;;30.17;;
52104;SDS011;38103;42.776;23.112;2022-10-22T07:01:39;60.25;;;33.70;;
52104;SDS011;38103;42.776;23.112;2022-10-22T07:04:04;42.35;;;25.85;;
52104;SDS011;38103;42.776;23.112;2022-10-22T07:06:30;46.50;;;26.75;;
52104;SDS011;38103;42.776;23.112;2022-10-22T07:08:57;47.28;;;31.05;;
52104;SDS011;38103;42.776;23.112;2022-10-22T07:11:30;68.93;;;38.67;;
52104;SDS011;38103;42.776;23.112;2022-10-22T07:14:02;50.40;;;29.67;;
52104;SDS011;38103;42.776;23.112;2022-10-22T07:16:28;44.15;;;26.85;;
52104;SDS011;38103;42.776;23.112;2022-10-22T07:18:53;37.08;;;21.88;;
52104;SDS011;38103;42.776;23.112;2022-10-22T07:21:19;42.80;;;22.92;;
52104;SDS011;38103;42.776;23.112;2022-10-22T07:23:46;36.45;;;21.42;;
52104;SDS011;38103;42.776;23.112;2022-10-22T07:26:15;38.45;;;23.30;;
52104;SDS011;38103;42.776;23.112;2022-10-22T07:28:41;49.00;;;24.23;;
52104;SDS011;38103;42.776;23.112;2022-10-22T07:31:08;42.75;;;25.38;;
52104;SDS011;38103;42.776;23.112;2022-10-22T07:33:34;39.92;;;23.10;;
52104;SDS011;38103;42.776;23.112;2022-10-22T07:36:01;38.08;;;22.65;;
52104;SDS011;38103;42.776;23.112;2022-10-22T07:38:30;40.15;;;21.90;;
52104;SDS011;38103;42.776;23.112;2022-10-22T07:40:57;40.15;;;20.27;;
52104;SDS011;38103;42.776;23.112;2022-10-22T07:43:23;38.20;;;19.65;;
52104;SDS011;38103;42.776;23.112;2022-10-22T07:45:48;34.25;;;19.92;;
52104;SDS011;38103;42.776;23.112;2022-10-22T07:48:14;34.05;;;17.55;;
52104;SDS011;38103;42.776;23.112;2022-10-22T07:50:40;34.58;;;17.67;;
52104;SDS011;38103;42.776;23.112;2022-10-22T07:53:05;35.70;;;17.67;;
52104;SDS011;38103;42.776;23.112;2022-10-22T07:55:31;33.78;;;18.13;;
52104;SDS011;38103;42.776;23.112;2022-10-22T07:57:58;36.55;;;18.70;;
52104;SDS011;38103;42.776;23.112;2022-10-22T08:00:23;31.85;;;18.05;;
52104;SDS011;38103;42.776;23.112;2022-10-22T08:02:48;31.88;;;17.42;;
52104;SDS011;38103;42.776;23.112;2022-10-22T08:05:14;31.90;;;17.45;;
52104;SDS011;38103;42.776;23.112;2022-10-22T08:07:40;31.45;;;16.63;;
52104;SDS011;38103;42.776;23.112;2022-10-22T08:10:06;30.88;;;15.88;;
52104;SDS011;38103;42.776;23.112;2022-10-22T08:12:32;31.08;;;17.05;;
52104;SDS011;38103;42.776;23.112;2022-10-22T08:14:57;27.90;;;15.57;;
52104;SDS011;38103;42.776;23.112;2022-10-22T08:17:24;28.25;;;17.05;;
52104;SDS011;38103;42.776;23.112;2022-10-22T08:19:50;31.63;;;16.25;;
52104;SDS011;38103;42.776;23.112;2022-10-22T08:22:15;31.42;;;17.13;;
52104;SDS011;38103;42.776;23.112;2022-10-22T08:24:41;33.95;;;17.55;;
52104;SDS011;38103;42.776;23.112;2022-10-22T08:27:06;36.00;;;17.20;;
52104;SDS011;38103;42.776;23.112;2022-10-22T08:29:31;30.92;;;18.02;;
52104;SDS011;38103;42.776;23.112;2022-10-22T08:31:57;39.05;;;17.30;;
52104;SDS011;38103;42.776;23.112;2022-10-22T08:34:22;29.38;;;16.77;;
52104;SDS011;38103;42.776;23.112;2022-10-22T08:36:47;28.88;;;17.48;;
52104;SDS011;38103;42.776;23.112;2022-10-22T08:39:13;32.10;;;16.27;;
52104;SDS011;38103;42.776;23.112;2022-10-22T08:41:48;33.80;;;17.05;;
52104;SDS011;38103;42.776;23.112;2022-10-22T08:53:21;29.98;;;16.52;;
52104;SDS011;38103;42.776;23.112;2022-10-22T08:55:52;29.58;;;15.70;;
52104;SDS011;38103;42.776;23.112;2022-10-22T09:00:59;26.27;;;14.77;;
52104;SDS011;38103;42.776;23.112;2022-10-22T09:06:15;33.10;;;14.73;;
52104;SDS011;38103;42.776;23.112;2022-10-22T09:08:43;35.00;;;17.02;;
52104;SDS011;38103;42.776;23.112;2022-10-22T09:11:24;30.02;;;16.55;;
52104;SDS011;38103;42.776;23.112;2022-10-22T09:13:56;28.92;;;13.68;;
52104;SDS011;38103;42.776;23.112;2022-10-22T09:16:32;26.33;;;13.88;;
52104;SDS011;38103;42.776;23.112;2022-10-22T09:24:53;29.25;;;14.70;;
52104;SDS011;38103;42.776;23.112;2022-10-22T09:27:28;23.70;;;13.90;;
52104;SDS011;38103;42.776;23.112;2022-10-22T09:29:54;27.95;;;12.70;;
52104;SDS011;38103;42.776;23.112;2022-10-22T09:32:20;25.23;;;13.23;;
52104;SDS011;38103;42.776;23.112;2022-10-22T09:34:46;28.60;;;15.35;;
52104;SDS011;38103;42.776;23.112;2022-10-22T09:37:15;25.80;;;12.82;;
52104;SDS011;38103;42.776;23.112;2022-10-22T09:39:44;30.00;;;14.23;;
52104;SDS011;38103;42.776;23.112;2022-10-22T09:42:13;24.05;;;13.52;;
52104;SDS011;38103;42.776;23.112;2022-10-22T09:44:40;35.42;;;15.60;;
52104;SDS011;38103;42.776;23.112;2022-10-22T09:47:06;28.38;;;12.60;;
52104;SDS011;38103;42.776;23.112;2022-10-22T09:50:16;26.42;;;13.63;;
52104;SDS011;38103;42.776;23.112;2022-10-22T09:52:40;28.58;;;15.68;;
52104;SDS011;38103;42.776;23.112;2022-10-22T09:55:16;22.85;;;13.15;;
52104;SDS011;38103;42.776;23.112;2022-10-22T09:57:42;32.83;;;14.07;;
52104;SDS011;38103;42.776;23.112;2022-10-22T10:00:09;21.40;;;12.13;;
52104;SDS011;38103;42.776;23.112;2022-10-22T10:02:38;26.30;;;14.10;;
52104;SDS011;38103;42.776;23.112;2022-10-22T10:05:13;22.83;;;12.65;;
52104;SDS011;38103;42.776;23.112;2022-10-22T10:07:43;22.15;;;12.75;;
52104;SDS011;38103;42.776;23.112;2022-10-22T10:10:19;22.50;;;13.32;;
52104;SDS011;38103;42.776;23.112;2022-10-22T10:15:54;28.55;;;13.23;;
52104;SDS011;38103;42.776;23.112;2022-10-22T10:27:11;24.70;;;12.10;;
52104;SDS011;38103;42.776;23.112;2022-10-22T10:29:52;30.38;;;13.10;;
52104;SDS011;38103;42.776;23.112;2022-10-22T10:37:53;20.77;;;11.35;;
52104;SDS011;38103;42.776;23.112;2022-10-22T10:40:41;21.25;;;11.75;;
52104;SDS011;38103;42.776;23.112;2022-10-22T10:43:16;21.95;;;11.85;;
52104;SDS011;38103;42.776;23.112;2022-10-22T10:48:59;26.55;;;11.77;;
52104;SDS011;38103;42.776;23.112;2022-10-22T10:53:56;24.38;;;10.60;;
52104;SDS011;38103;42.776;23.112;2022-10-22T10:56:43;29.95;;;12.77;;
52104;SDS011;38103;42.776;23.112;2022-10-22T10:59:22;23.15;;;11.95;;
52104;SDS011;38103;42.776;23.112;2022-10-22T11:02:23;24.30;;;11.40;;
52104;SDS011;38103;42.776;23.112;2022-10-22T11:07:49;26.13;;;11.02;;
52104;SDS011;38103;42.776;23.112;2022-10-22T11:13:05;26.98;;;13.02;;
52104;SDS011;38103;42.776;23.112;2022-10-22T11:15:38;24.42;;;11.23;;
52104;SDS011;38103;42.776;23.112;2022-10-22T11:18:50;23.10;;;11.70;;
52104;SDS011;38103;42.776;23.112;2022-10-22T11:23:44;23.45;;;11.60;;
52104;SDS011;38103;42.776;23.112;2022-10-22T11:26:18;24.77;;;10.93;;
52104;SDS011;38103;42.776;23.112;2022-10-22T11:29:02;18.15;;;10.57;;
52104;SDS011;38103;42.776;23.112;2022-10-22T11:31:31;27.70;;;10.70;;
52104;SDS011;38103;42.776;23.112;2022-10-22T11:33:59;27.13;;;11.48;;
52104;SDS011;38103;42.776;23.112;2022-10-22T11:36:31;20.55;;;10.75;;
52104;SDS011;38103;42.776;23.112;2022-10-22T11:38:58;23.92;;;11.77;;
52104;SDS011;38103;42.776;23.112;2022-10-22T11:41:24;22.70;;;10.63;;
52104;SDS011;38103;42.776;23.112;2022-10-22T11:44:07;29.98;;;12.55;;
52104;SDS011;38103;42.776;23.112;2022-10-22T11:49:20;24.52;;;11.40;;
52104;SDS011;38103;42.776;23.112;2022-10-22T11:51:48;21.02;;;10.65;;
52104;SDS011;38103;42.776;23.112;2022-10-22T11:57:11;30.20;;;10.93;;
52104;SDS011;38103;42.776;23.112;2022-10-22T12:02:24;21.40;;;10.52;;
52104;SDS011;38103;42.776;23.112;2022-10-22T12:05:16;22.75;;;10.65;;
52104;SDS011;38103;42.776;23.112;2022-10-22T12:07:56;20.05;;;10.25;;
52104;SDS011;38103;42.776;23.112;2022-10-22T12:10:26;22.48;;;9.98;;
52104;SDS011;38103;42.776;23.112;2022-10-22T12:13:01;31.05;;;10.95;;
52104;SDS011;38103;42.776;23.112;2022-10-22T12:15:40;23.08;;;10.15;;
52104;SDS011;38103;42.776;23.112;2022-10-22T12:18:15;27.35;;;10.68;;
52104;SDS011;38103;42.776;23.112;2022-10-22T12:20:41;23.40;;;11.02;;
52104;SDS011;38103;42.776;23.112;2022-10-22T12:23:10;21.77;;;10.73;;
52104;SDS011;38103;42.776;23.112;2022-10-22T12:25:37;28.35;;;11.23;;
52104;SDS011;38103;42.776;23.112;2022-10-22T12:28:03;25.60;;;12.77;;
52104;SDS011;38103;42.776;23.112;2022-10-22T12:30:30;40.42;;;15.32;;
52104;SDS011;38103;42.776;23.112;2022-10-22T12:33:00;23.85;;;11.98;;
52104;SDS011;38103;42.776;23.112;2022-10-22T12:35:32;30.30;;;11.30;;
52104;SDS011;38103;42.776;23.112;2022-10-22T12:38:00;27.17;;;13.07;;
52104;SDS011;38103;42.776;23.112;2022-10-22T12:40:31;23.00;;;10.43;;
52104;SDS011;38103;42.776;23.112;2022-10-22T12:42:59;21.05;;;11.75;;
52104;SDS011;38103;42.776;23.112;2022-10-22T12:45:45;25.13;;;12.07;;
52104;SDS011;38103;42.776;23.112;2022-10-22T12:48:31;23.15;;;11.50;;
52104;SDS011;38103;42.776;23.112;2022-10-22T12:51:02;21.92;;;11.10;;
52104;SDS011;38103;42.776;23.112;2022-10-22T12:53:33;22.63;;;10.75;;
52104;SDS011;38103;42.776;23.112;2022-10-22T12:56:11;31.73;;;12.27;;
52104;SDS011;38103;42.776;23.112;2022-10-22T12:58:45;24.73;;;11.75;;
52104;SDS011;38103;42.776;23.112;2022-10-22T13:01:14;21.95;;;11.07;;
52104;SDS011;38103;42.776;23.112;2022-10-22T13:03:42;24.27;;;11.10;;
52104;SDS011;38103;42.776;23.112;2022-10-22T13:06:12;19.25;;;10.55;;
52104;SDS011;38103;42.776;23.112;2022-10-22T13:08:43;24.65;;;11.13;;
52104;SDS011;38103;42.776;23.112;2022-10-22T13:11:33;27.20;;;12.40;;
52104;SDS011;38103;42.776;23.112;2022-10-22T13:22:24;24.65;;;11.50;;
52104;SDS011;38103;42.776;23.112;2022-10-22T13:24:50;23.65;;;11.70;;
52104;SDS011;38103;42.776;23.112;2022-10-22T13:27:15;23.42;;;12.68;;
52104;SDS011;38103;42.776;23.112;2022-10-22T13:29:41;27.40;;;12.05;;
52104;SDS011;38103;42.776;23.112;2022-10-22T13:34:54;27.50;;;12.77;;
52104;SDS011;38103;42.776;23.112;2022-10-22T13:37:21;23.13;;;12.23;;
52104;SDS011;38103;42.776;23.112;2022-10-22T13:39:47;31.38;;;12.82;;
52104;SDS011;38103;42.776;23.112;2022-10-22T13:42:13;24.38;;;11.98;;
52104;SDS011;38103;42.776;23.112;2022-10-22T13:44:38;27.35;;;12.20;;
52104;SDS011;38103;42.776;23.112;2022-10-22T13:47:06;22.90;;;12.15;;
52104;SDS011;38103;42.776;23.112;2022-10-22T13:49:41;26.08;;;13.25;;
52104;SDS011;38103;42.776;23.112;2022-10-22T13:52:09;22.77;;;11.77;;
52104;SDS011;38103;42.776;23.112;2022-10-22T13:54:43;27.30;;;11.60;;
52104;SDS011;38103;42.776;23.112;2022-10-22T13:57:08;21.65;;;11.77;;
52104;SDS011;38103;42.776;23.112;2022-10-22T13:59:34;23.10;;;10.75;;
52104;SDS011;38103;42.776;23.112;2022-10-22T14:01:59;20.98;;;11.45;;
52104;SDS011;38103;42.776;23.112;2022-10-22T14:04:30;24.15;;;11.52;;
52104;SDS011;38103;42.776;23.112;2022-10-22T14:06:57;21.58;;;12.20;;
52104;SDS011;38103;42.776;23.112;2022-10-22T14:09:25;23.83;;;11.73;;
52104;SDS011;38103;42.776;23.112;2022-10-22T14:11:50;21.42;;;11.77;;
52104;SDS011;38103;42.776;23.112;2022-10-22T14:14:15;28.95;;;12.02;;
52104;SDS011;38103;42.776;23.112;2022-10-22T14:16:42;26.52;;;12.75;;
52104;SDS011;38103;42.776;23.112;2022-10-22T14:19:09;25.67;;;12.65;;
52104;SDS011;38103;42.776;23.112;2022-10-22T14:21:40;23.75;;;12.70;;
52104;SDS011;38103;42.776;23.112;2022-10-22T14:24:07;25.77;;;13.27;;
52104;SDS011;38103;42.776;23.112;2022-10-22T14:26:34;24.23;;;12.43;;
52104;SDS011;38103;42.776;23.112;2022-10-22T14:28:59;22.45;;;12.20;;
52104;SDS011;38103;42.776;23.112;2022-10-22T14:31:25;28.88;;;12.35;;
52104;SDS011;38103;42.776;23.112;2022-10-22T14:33:51;24.35;;;13.68;;
52104;SDS011;38103;42.776;23.112;2022-10-22T14:36:17;25.45;;;13.27;;
52104;SDS011;38103;42.776;23.112;2022-10-22T14:38:43;25.63;;;12.80;;
52104;SDS011;38103;42.776;23.112;2022-10-22T14:41:17;28.73;;;12.95;;
52104;SDS011;38103;42.776;23.112;2022-10-22T14:43:42;23.48;;;12.32;;
52104;SDS011;38103;42.776;23.112;2022-10-22T14:46:09;22.90;;;12.93;;
52104;SDS011;38103;42.776;23.112;2022-10-22T14:48:36;23.88;;;13.13;;
52104;SDS011;38103;42.776;23.112;2022-10-22T14:51:02;22.90;;;12.35;;
52104;SDS011;38103;42.776;23.112;2022-10-22T14:53:27;23.25;;;12.85;;
52104;SDS011;38103;42.776;23.112;2022-10-22T14:55:52;27.42;;;12.30;;
52104;SDS011;38103;42.776;23.112;2022-10-22T14:58:21;22.85;;;12.45;;
52104;SDS011;38103;42.776;23.112;2022-10-22T15:00:46;25.05;;;11.90;;
52104;SDS011;38103;42.776;23.112;2022-10-22T15:03:12;22.63;;;11.82;;
52104;SDS011;38103;42.776;23.112;2022-10-22T15:05:41;23.30;;;11.73;;
52104;SDS011;38103;42.776;23.112;2022-10-22T15:08:08;23.65;;;11.32;;
52104;SDS011;38103;42.776;23.112;2022-10-22T15:10:34;25.10;;;11.73;;
52104;SDS011;38103;42.776;23.112;2022-10-22T15:12:59;32.83;;;12.90;;
52104;SDS011;38103;42.776;23.112;2022-10-22T15:15:24;24.48;;;12.43;;
52104;SDS011;38103;42.776;23.112;2022-10-22T15:17:50;26.67;;;12.50;;
52104;SDS011;38103;42.776;23.112;2022-10-22T15:20:15;26.65;;;12.45;;
52104;SDS011;38103;42.776;23.112;2022-10-22T15:22:41;29.77;;;13.40;;
52104;SDS011;38103;42.776;23.112;2022-10-22T15:25:08;24.35;;;12.70;;
52104;SDS011;38103;42.776;23.112;2022-10-22T15:27:34;26.50;;;13.15;;
52104;SDS011;38103;42.776;23.112;2022-10-22T15:30:00;28.33;;;12.52;;
52104;SDS011;38103;42.776;23.112;2022-10-22T15:32:26;24.63;;;13.60;;
52104;SDS011;38103;42.776;23.112;2022-10-22T15:34:53;28.15;;;13.68;;
52104;SDS011;38103;42.776;23.112;2022-10-22T15:37:19;32.50;;;13.93;;
52104;SDS011;38103;42.776;23.112;2022-10-22T15:39:45;26.85;;;13.57;;
52104;SDS011;38103;42.776;23.112;2022-10-22T15:42:11;30.00;;;15.18;;
52104;SDS011;38103;42.776;23.112;2022-10-22T15:44:38;44.10;;;18.33;;
52104;SDS011;38103;42.776;23.112;2022-10-22T15:47:04;33.28;;;18.13;;
52104;SDS011;38103;42.776;23.112;2022-10-22T15:49:32;40.58;;;16.85;;
52104;SDS011;38103;42.776;23.112;2022-10-22T15:51:58;31.13;;;13.90;;
52104;SDS011;38103;42.776;23.112;2022-10-22T15:54:25;29.42;;;14.32;;
52104;SDS011;38103;42.776;23.112;2022-10-22T15:56:53;24.75;;;12.95;;
52104;SDS011;38103;42.776;23.112;2022-10-22T15:59:18;26.80;;;13.27;;